Time;durP1;ratioP1;P1;durP2;ratioP2;P2;SDS_P1;SDS_P2;PMS_P1;PMS_P2;Temp;Humidity;BMP_temperature;BMP_pressure;BME280_temperature;BME280_humidity;BME280_pressure;Samples;Min_cycle;Max_cycle;Signal;HPM_P1;HPM_P2
2022/06/14 00:03:04;;;;;;;3.40;3.10;;;24.80;42.10;;;;;;5026558;28;20535;-45
2022/06/14 00:05:30;;;;;;;4.83;2.73;;;24.80;42.20;;;;;;5022655;28;20951;-46
2022/06/14 00:07:56;;;;;;;3.43;3.00;;;24.60;42.40;;;;;;5024559;28;20673;-49
2022/06/14 00:10:22;;;;;;;5.03;3.10;;;24.70;42.60;;;;;;5019273;28;20619;-49
2022/06/14 00:12:48;;;;;;;3.50;3.20;;;24.70;42.40;;;;;;5021561;28;20208;-48
2022/06/14 00:15:14;;;;;;;5.13;3.43;;;24.60;42.50;;;;;;5028553;28;20276;-47
2022/06/14 00:17:40;;;;;;;3.67;3.37;;;24.50;42.70;;;;;;5027417;28;20200;-48
2022/06/14 00:20:06;;;;;;;4.83;3.57;;;24.40;42.90;;;;;;5023482;28;20475;-47
2022/06/14 00:22:33;;;;;;;5.70;3.33;;;24.50;42.80;;;;;;5026871;28;20196;-45
2022/06/14 00:24:59;;;;;;;6.60;3.00;;;24.50;42.60;;;;;;5026289;28;20483;-50
2022/06/14 00:27:24;;;;;;;3.43;3.13;;;24.50;42.80;;;;;;5029106;28;20483;-47
2022/06/14 00:29:50;;;;;;;3.33;2.40;;;24.50;42.70;;;;;;5029059;28;20225;-46
2022/06/14 00:32:15;;;;;;;3.50;3.20;;;24.30;43.00;;;;;;5023467;28;20198;-46
2022/06/14 00:34:41;;;;;;;3.80;3.23;;;24.20;43.30;;;;;;5022286;28;21889;-47
2022/06/14 00:37:16;;;;;;;3.70;3.23;;;24.30;43.10;;;;;;5024405;28;20193;-49
2022/06/14 00:39:42;;;;;;;3.43;2.80;;;24.30;43.00;;;;;;5021971;28;20667;-46
2022/06/14 00:42:21;;;;;;;3.53;2.73;;;24.40;42.70;;;;;;5014967;28;20468;-47
2022/06/14 00:45:12;;;;;;;5.30;3.43;;;24.40;42.80;;;;;;5021198;28;20444;-47
2022/06/14 00:47:43;;;;;;;3.67;3.10;;;24.30;42.90;;;;;;5025618;28;20908;-49
2022/06/14 00:50:24;;;;;;;3.40;3.10;;;24.10;43.30;;;;;;5022713;28;20484;-47
2022/06/14 00:53:13;;;;;;;4.97;3.47;;;23.90;44.30;;;;;;5025778;28;20510;-45
2022/06/14 00:56:11;;;;;;;4.03;2.90;;;24.10;43.50;;;;;;5025267;28;20507;-49
2022/06/14 00:58:53;;;;;;;3.40;3.10;;;24.10;43.30;;;;;;5006708;28;20463;-48
2022/06/14 01:01:27;;;;;;;5.90;3.30;;;24.20;43.10;;;;;;5025388;28;20450;-47
2022/06/14 01:04:05;;;;;;;4.40;4.00;;;24.10;43.40;;;;;;5024392;28;20448;-47
2022/06/14 01:06:50;;;;;;;5.63;4.10;;;23.80;43.80;;;;;;5023629;28;20534;-46
2022/06/14 01:09:30;;;;;;;4.77;3.43;;;23.90;43.70;;;;;;5021514;28;20483;-45
2022/06/14 01:12:09;;;;;;;3.77;3.47;;;23.80;43.80;;;;;;5019718;28;20502;-45
2022/06/14 01:15:00;;;;;;;4.10;3.60;;;23.70;44.10;;;;;;5026821;28;20495;-47
2022/06/14 01:17:26;;;;;;;4.67;3.47;;;23.60;44.20;;;;;;5017795;28;20488;-45
2022/06/14 01:19:52;;;;;;;3.70;3.40;;;23.70;44.10;;;;;;5026476;28;20439;-46
2022/06/14 01:22:18;;;;;;;4.07;3.20;;;23.70;44.00;;;;;;5022215;28;20456;-46
2022/06/14 01:24:44;;;;;;;4.00;3.70;;;23.60;44.10;;;;;;5030140;28;20793;-49
2022/06/14 01:27:14;;;;;;;3.70;2.73;;;23.60;44.50;;;;;;5023059;28;20299;-45
2022/06/14 01:29:44;;;;;;;3.30;3.00;;;23.70;44.20;;;;;;5023494;28;20436;-46
2022/06/14 01:32:14;;;;;;;3.10;2.90;;;23.60;44.20;;;;;;5022566;28;21010;-46
2022/06/14 01:34:50;;;;;;;8.47;3.53;;;23.70;44.00;;;;;;5028208;28;20837;-46
2022/06/14 01:37:16;;;;;;;5.13;4.23;;;23.80;43.80;;;;;;5021031;28;20804;-45
2022/06/14 01:39:42;;;;;;;3.20;2.90;;;23.90;44.00;;;;;;5027290;28;20450;-46
2022/06/14 01:42:07;;;;;;;3.57;3.00;;;23.60;44.10;;;;;;5021990;28;20726;-48
2022/06/14 01:45:04;;;;;;;3.53;3.00;;;23.50;44.30;;;;;;5012707;28;20193;-46
2022/06/14 01:47:58;;;;;;;4.23;3.83;;;23.50;44.40;;;;;;5017689;28;20660;-46
2022/06/14 01:53:32;;;;;;;3.50;2.57;;;23.50;44.40;;;;;;5015636;28;20462;-45
2022/06/14 01:56:13;;;;;;;4.60;3.50;;;23.50;44.30;;;;;;5021912;28;20554;-47
2022/06/14 01:58:50;;;;;;;3.80;3.50;;;23.40;44.30;;;;;;5025175;28;20459;-45
2022/06/14 02:01:26;;;;;;;5.60;3.23;;;23.40;44.40;;;;;;5023759;28;20509;-45
2022/06/14 02:07:26;;;;;;;7.73;4.30;;;23.50;44.40;;;;;;5026136;28;20459;-44
2022/06/14 02:10:04;;;;;;;9.00;3.63;;;23.70;43.50;;;;;;5028221;28;20561;-47
2022/06/14 02:12:45;;;;;;;4.33;3.77;;;23.70;43.00;;;;;;5017425;28;20543;-45
2022/06/14 02:15:33;;;;;;;3.97;3.57;;;23.70;42.80;;;;;;5022124;28;21049;-46
2022/06/14 02:18:05;;;;;;;5.50;3.90;;;23.60;43.70;;;;;;5029873;28;20444;-45
2022/06/14 02:20:47;;;;;;;5.20;3.87;;;23.50;43.60;;;;;;5024206;28;20452;-45
2022/06/14 02:23:13;;;;;;;5.17;3.90;;;23.30;43.70;;;;;;5008152;28;20571;-45
2022/06/14 02:25:50;;;;;;;4.87;3.50;;;23.30;43.80;;;;;;5027051;28;20861;-45
2022/06/14 02:28:32;;;;;;;4.50;3.97;;;23.30;43.70;;;;;;5026907;28;21226;-46
2022/06/14 02:31:04;;;;;;;3.63;3.33;;;23.30;43.80;;;;;;5027080;28;20491;-49
2022/06/14 02:33:39;;;;;;;4.40;3.50;;;23.30;43.80;;;;;;5020697;28;20454;-45
2022/06/14 02:36:11;;;;;;;5.53;3.37;;;23.30;43.80;;;;;;5024591;28;20439;-45
2022/06/14 02:38:46;;;;;;;6.87;3.47;;;23.30;44.20;;;;;;5026996;28;20468;-44
2022/06/14 02:41:41;;;;;;;4.10;3.70;;;23.30;43.80;;;;;;5030618;28;20883;-44
2022/06/14 02:44:24;;;;;;;3.53;3.23;;;23.30;43.70;;;;;;5015583;28;20456;-45
2022/06/14 02:47:04;;;;;;;5.20;4.47;;;23.20;43.80;;;;;;5028407;28;20440;-46
2022/06/14 02:49:45;;;;;;;4.90;3.23;;;23.10;43.50;;;;;;5028328;28;20455;-45
2022/06/14 02:52:17;;;;;;;4.77;3.33;;;22.80;44.00;;;;;;5021299;28;20470;-45
2022/06/14 02:54:59;;;;;;;4.23;3.87;;;22.50;44.60;;;;;;4988266;28;1099136;-49
2022/06/14 02:57:30;;;;;;;5.73;3.37;;;22.20;45.10;;;;;;5027743;28;20197;-45
2022/06/14 03:00:06;;;;;;;4.90;3.80;;;22.00;45.70;;;;;;5023138;28;20460;-45
2022/06/14 03:03:03;;;;;;;6.80;3.80;;;21.70;46.20;;;;;;5029029;28;20451;-45
2022/06/14 03:05:50;;;;;;;5.40;3.70;;;21.50;46.80;;;;;;5017512;28;20456;-46
2022/06/14 03:08:25;;;;;;;5.27;3.30;;;21.30;47.30;;;;;;5021494;28;20604;-46
2022/06/14 03:11:13;;;;;;;5.43;4.13;;;21.10;48.00;;;;;;5030722;28;20527;-47
2022/06/14 03:13:54;;;;;;;5.30;3.50;;;21.00;48.20;;;;;;5026866;28;20436;-45
2022/06/14 03:16:37;;;;;;;4.30;3.53;;;20.60;49.10;;;;;;5028783;28;20448;-45
2022/06/14 03:19:11;;;;;;;6.23;3.40;;;20.50;49.70;;;;;;5022576;28;20439;-46
2022/06/14 03:21:51;;;;;;;5.90;4.00;;;20.40;49.70;;;;;;5021614;28;20487;-45
2022/06/14 03:24:41;;;;;;;8.20;4.10;;;20.30;49.80;;;;;;5026968;28;20452;-44
2022/06/14 03:27:20;;;;;;;5.73;4.13;;;20.30;49.70;;;;;;5020819;28;20915;-46
2022/06/14 03:29:52;;;;;;;5.57;4.00;;;20.30;49.60;;;;;;5023655;28;20458;-45
2022/06/14 03:32:21;;;;;;;4.30;3.87;;;20.40;50.30;;;;;;5027349;28;20459;-45
2022/06/14 03:34:53;;;;;;;4.27;3.87;;;20.40;49.70;;;;;;5025685;28;20459;-45
2022/06/14 03:37:20;;;;;;;6.67;4.80;;;20.30;49.90;;;;;;5031738;28;20424;-45
2022/06/14 03:39:54;;;;;;;6.50;4.60;;;20.20;50.10;;;;;;5027302;28;20436;-45
2022/06/14 03:42:21;;;;;;;5.60;3.90;;;20.10;50.50;;;;;;5025896;28;20962;-45
2022/06/14 03:44:46;;;;;;;4.60;3.53;;;20.00;50.60;;;;;;5017579;28;20437;-45
2022/06/14 03:47:21;;;;;;;4.37;3.50;;;20.00;50.60;;;;;;5021007;28;20990;-46
2022/06/14 03:49:58;;;;;;;6.10;4.33;;;19.90;50.80;;;;;;5020654;28;20193;-45
2022/06/14 03:52:57;;;;;;;11.10;4.40;;;19.80;51.20;;;;;;5014267;28;20536;-44
2022/06/14 03:55:41;;;;;;;4.50;3.70;;;19.90;51.30;;;;;;5018690;28;20484;-45
2022/06/14 03:58:31;;;;;;;7.97;4.30;;;19.80;51.30;;;;;;5023100;28;20475;-45
2022/06/14 04:01:03;;;;;;;6.00;3.80;;;19.70;51.80;;;;;;5027278;28;20444;-45
2022/06/14 04:03:47;;;;;;;5.87;4.70;;;19.70;51.70;;;;;;5025628;28;20506;-45
2022/06/14 04:07:00;;;;;;;6.30;4.77;;;19.50;52.40;;;;;;5025609;28;20472;-49
2022/06/14 04:09:49;;;;;;;4.90;4.40;;;19.40;52.50;;;;;;4968578;28;20537;-48
2022/06/14 04:12:21;;;;;;;6.03;4.10;;;19.40;52.70;;;;;;5020911;28;20913;-48
2022/06/14 04:15:09;;;;;;;5.50;4.17;;;19.40;52.80;;;;;;5020189;28;20509;-50
2022/06/14 04:17:56;;;;;;;6.00;4.60;;;19.20;53.30;;;;;;5015659;28;20455;-46
2022/06/14 04:20:34;;;;;;;5.03;4.57;;;19.40;53.10;;;;;;5025687;28;20448;-49
2022/06/14 04:23:21;;;;;;;9.23;5.73;;;19.40;53.20;;;;;;5024416;28;20538;-46
2022/06/14 04:25:57;;;;;;;4.80;3.90;;;19.50;52.80;;;;;;5022128;28;21001;-49
2022/06/14 04:28:33;;;;;;;12.23;3.70;;;19.60;52.70;;;;;;5024716;28;20452;-46
2022/06/14 04:31:07;;;;;;;4.57;4.20;;;19.70;52.50;;;;;;5023349;28;20549;-49
2022/06/14 04:33:54;;;;;;;5.13;4.33;;;19.70;52.30;;;;;;5025452;28;20534;-49
2022/06/14 04:36:35;;;;;;;6.30;4.60;;;19.80;52.20;;;;;;5015754;28;20486;-48
2022/06/14 04:39:11;;;;;;;6.60;4.47;;;19.90;52.10;;;;;;5026083;28;20456;-46
2022/06/14 04:42:02;;;;;;;4.90;4.37;;;19.90;52.10;;;;;;5022245;28;20443;-48
2022/06/14 04:44:49;;;;;;;5.07;4.40;;;19.90;52.20;;;;;;5022986;28;20530;-46
2022/06/14 04:47:24;;;;;;;4.40;4.07;;;19.40;53.20;;;;;;5021365;28;20478;-49
2022/06/14 04:49:59;;;;;;;4.93;4.30;;;19.50;53.70;;;;;;5025513;28;20450;-46
2022/06/14 04:52:37;;;;;;;9.10;4.03;;;19.10;54.30;;;;;;5019496;28;20447;-48
2022/06/14 04:55:21;;;;;;;6.63;4.73;;;19.00;54.80;;;;;;5024226;28;20511;-50
2022/06/14 04:57:48;;;;;;;6.30;3.90;;;18.80;55.30;;;;;;5024076;28;20491;-49
2022/06/14 05:00:35;;;;;;;6.63;4.33;;;18.60;56.20;;;;;;5024116;28;20444;-48
2022/06/14 05:03:11;;;;;;;4.60;4.20;;;18.90;55.80;;;;;;5024164;28;20448;-45
2022/06/14 05:05:47;;;;;;;9.80;4.70;;;18.90;55.30;;;;;;5024835;28;20528;-48
2022/06/14 05:08:13;;;;;;;6.20;4.63;;;18.70;55.80;;;;;;5025039;28;20505;-45
2022/06/14 05:11:05;;;;;;;5.07;4.17;;;18.80;55.90;;;;;;5025153;28;20499;-45
2022/06/14 05:13:37;;;;;;;10.83;5.20;;;18.80;55.80;;;;;;5024077;28;20251;-49
2022/06/14 05:16:08;;;;;;;6.10;4.50;;;18.90;55.80;;;;;;5028131;28;21079;-46
2022/06/14 05:18:46;;;;;;;9.13;4.13;;;19.00;55.70;;;;;;5025648;28;20537;-44
2022/06/14 05:21:20;;;;;;;4.40;4.00;;;19.20;56.90;;;;;;5022602;28;20476;-45
2022/06/14 05:23:52;;;;;;;10.70;5.20;;;19.60;55.50;;;;;;5021994;28;20477;-45
2022/06/14 05:26:23;;;;;;;7.00;4.80;;;20.10;54.00;;;;;;5023592;28;21304;-47
2022/06/14 05:29:08;;;;;;;7.07;5.40;;;20.40;53.20;;;;;;5018993;28;20449;-45
2022/06/14 05:31:52;;;;;;;5.70;4.43;;;20.60;52.50;;;;;;5017175;28;20487;-45
2022/06/14 05:34:27;;;;;;;5.13;4.30;;;20.80;52.20;;;;;;5025910;28;20797;-45
2022/06/14 05:37:21;;;;;;;4.60;4.10;;;20.80;52.30;;;;;;5025608;28;20456;-45
2022/06/14 05:40:00;;;;;;;4.50;4.10;;;21.00;51.70;;;;;;5011146;28;20447;-46
2022/06/14 05:42:33;;;;;;;13.17;6.30;;;21.20;51.00;;;;;;5017252;28;20534;-47
2022/06/14 05:45:01;;;;;;;5.60;4.23;;;21.30;50.50;;;;;;5027457;28;20539;-46
2022/06/14 05:47:41;;;;;;;5.13;4.43;;;21.50;49.80;;;;;;5027616;28;20440;-46
2022/06/14 05:50:14;;;;;;;5.20;3.90;;;21.60;49.50;;;;;;5028427;28;20499;-45
2022/06/14 05:52:46;;;;;;;4.53;4.10;;;21.80;49.10;;;;;;5025240;28;20444;-46
2022/06/14 05:55:45;;;;;;;5.43;4.53;;;21.90;48.70;;;;;;5028611;28;20486;-47
2022/06/14 05:58:17;;;;;;;6.80;3.90;;;22.00;48.50;;;;;;5012809;28;20487;-46
2022/06/14 06:00:48;;;;;;;4.20;3.80;;;22.20;48.30;;;;;;5023995;28;20487;-46
2022/06/14 06:03:44;;;;;;;9.33;4.60;;;22.30;48.00;;;;;;5015907;28;20451;-45
2022/06/14 06:06:17;;;;;;;6.13;3.80;;;22.40;47.60;;;;;;5024602;28;20418;-44
2022/06/14 06:08:55;;;;;;;4.33;3.93;;;22.50;47.30;;;;;;5026906;28;20203;-45
2022/06/14 06:11:46;;;;;;;7.03;4.07;;;22.70;47.20;;;;;;5024873;28;20499;-44
2022/06/14 06:14:20;;;;;;;4.83;3.40;;;22.80;46.90;;;;;;5028240;28;20456;-44
2022/06/14 06:17:05;;;;;;;8.73;4.83;;;22.90;46.70;;;;;;5015875;28;20452;-44
2022/06/14 06:20:01;;;;;;;5.23;4.23;;;23.00;46.60;;;;;;5022849;28;20459;-45
2022/06/14 06:22:36;;;;;;;12.03;4.80;;;23.00;46.40;;;;;;5009515;28;20547;-44
2022/06/14 06:25:09;;;;;;;6.60;4.03;;;23.10;46.30;;;;;;5027388;28;20455;-45
2022/06/14 06:27:42;;;;;;;5.07;4.57;;;23.20;46.30;;;;;;5025620;28;20448;-44
2022/06/14 06:30:43;;;;;;;5.97;3.80;;;23.20;46.20;;;;;;5027406;28;20998;-44
2022/06/14 06:33:13;;;;;;;6.30;3.83;;;23.20;46.10;;;;;;5003599;28;20819;-46
2022/06/14 06:35:51;;;;;;;7.43;4.40;;;23.30;46.10;;;;;;5024215;28;20470;-44
2022/06/14 06:38:35;;;;;;;4.33;3.93;;;23.30;46.20;;;;;;5024096;28;20774;-45
2022/06/14 06:44:16;;;;;;;5.33;4.10;;;23.50;46.00;;;;;;5022182;28;20551;-44
2022/06/14 06:46:48;;;;;;;5.63;4.57;;;23.50;45.80;;;;;;5027686;28;20439;-44
2022/06/14 06:49:16;;;;;;;9.23;4.50;;;23.60;45.60;;;;;;5023200;28;20436;-44
2022/06/14 06:51:56;;;;;;;5.60;4.03;;;23.60;45.40;;;;;;4996817;28;20488;-44
2022/06/14 06:54:24;;;;;;;6.77;4.93;;;23.70;45.30;;;;;;5029170;28;20490;-46
2022/06/14 06:56:55;;;;;;;10.73;4.10;;;23.80;45.10;;;;;;5028831;28;20568;-44
2022/06/14 06:59:48;;;;;;;4.30;3.90;;;23.80;45.10;;;;;;5028826;28;20944;-44
2022/06/14 07:02:31;;;;;;;8.60;3.50;;;23.60;46.50;;;;;;5019054;28;20466;-44
2022/06/14 07:05:05;;;;;;;5.90;4.10;;;23.80;46.20;;;;;;5028312;28;20947;-44
2022/06/14 07:07:57;;;;;;;5.90;4.97;;;24.10;46.00;;;;;;5018962;28;20440;-44
2022/06/14 07:10:40;;;;;;;6.53;4.00;;;24.20;44.90;;;;;;5027513;28;20495;-44
2022/06/14 07:13:28;;;;;;;4.60;4.20;;;24.30;45.00;;;;;;5030086;28;20432;-45
2022/06/14 07:15:53;;;;;;;5.90;4.63;;;24.50;44.90;;;;;;5018958;28;20502;-45
2022/06/14 07:18:26;;;;;;;10.20;5.40;;;24.20;43.30;;;;;;5032586;28;20911;-44
2022/06/14 07:21:13;;;;;;;7.57;3.90;;;24.20;43.50;;;;;;5029025;28;20229;-44
2022/06/14 07:23:55;;;;;;;5.73;4.27;;;24.40;44.30;;;;;;5030255;28;20458;-45
2022/06/14 07:26:30;;;;;;;4.97;4.43;;;24.50;43.80;;;;;;5028993;28;21267;-45
2022/06/14 07:29:12;;;;;;;7.03;4.90;;;24.70;43.90;;;;;;5030367;28;20956;-44
2022/06/14 07:31:53;;;;;;;6.43;4.30;;;24.60;42.80;;;;;;5025106;28;20523;-47
2022/06/14 07:34:19;;;;;;;6.07;4.43;;;24.80;43.60;;;;;;5029031;28;20527;-45
2022/06/14 07:36:51;;;;;;;6.13;4.20;;;25.00;43.30;;;;;;5020846;28;20629;-44
2022/06/14 07:39:37;;;;;;;7.57;4.50;;;25.10;42.20;;;;;;5028500;28;20185;-44
2022/06/14 07:42:24;;;;;;;8.83;4.60;;;25.20;43.60;;;;;;5026550;28;20439;-44
2022/06/14 07:45:17;;;;;;;6.17;3.73;;;25.40;42.90;;;;;;5030331;28;20440;-44
2022/06/14 07:47:45;;;;;;;6.20;4.33;;;25.60;42.50;;;;;;5025973;28;20444;-44
2022/06/14 07:50:27;;;;;;;4.70;4.30;;;25.70;42.30;;;;;;5027919;28;20558;-46
2022/06/14 07:53:00;;;;;;;5.70;5.00;;;25.80;42.20;;;;;;5019238;28;20450;-45
2022/06/14 07:55:37;;;;;;;4.67;4.07;;;25.90;42.30;;;;;;5022842;28;21002;-45
2022/06/14 07:58:10;;;;;;;4.13;3.73;;;26.00;42.10;;;;;;5024137;28;20461;-46
2022/06/14 08:03:37;;;;;;;5.30;4.47;;;26.20;41.90;;;;;;5025607;28;20454;-46
2022/06/14 08:06:07;;;;;;;8.20;4.83;;;26.30;41.80;;;;;;5024863;28;20481;-47
2022/06/14 08:08:37;;;;;;;5.07;4.53;;;26.40;41.00;;;;;;5022009;28;20444;-46
2022/06/14 08:11:08;;;;;;;4.70;4.30;;;26.50;41.40;;;;;;5003278;28;21098;-46
2022/06/14 08:13:44;;;;;;;4.87;4.27;;;26.70;41.20;;;;;;5025319;28;20442;-46
2022/06/14 08:16:12;;;;;;;10.27;4.83;;;26.80;40.90;;;;;;5024002;28;21098;-44
2022/06/14 08:18:47;;;;;;;6.70;4.30;;;26.80;40.80;;;;;;5022067;28;20586;-46
2022/06/14 08:21:16;;;;;;;7.53;4.37;;;26.90;40.80;;;;;;5024587;28;20506;-46
2022/06/14 08:23:47;;;;;;;5.10;4.40;;;27.00;40.70;;;;;;5021597;28;20448;-45
2022/06/14 08:26:47;;;;;;;6.07;4.13;;;27.10;39.60;;;;;;5027763;28;20554;-50
2022/06/14 08:29:32;;;;;;;6.43;4.60;;;27.10;40.80;;;;;;5022332;28;20484;-45
2022/06/14 08:32:13;;;;;;;4.40;4.00;;;27.20;40.70;;;;;;5024732;28;20484;-46
2022/06/14 08:34:48;;;;;;;5.10;4.27;;;27.30;40.20;;;;;;5024797;28;20447;-45
2022/06/14 08:37:20;;;;;;;8.47;5.83;;;27.30;39.90;;;;;;5018911;28;20454;-45
2022/06/14 08:40:15;;;;;;;7.23;4.60;;;27.40;39.50;;;;;;5022517;28;20514;-46
2022/06/14 08:43:07;;;;;;;7.83;4.33;;;27.40;37.60;;;;;;5025202;28;20538;-44
2022/06/14 08:45:57;;;;;;;4.70;3.77;;;27.60;37.50;;;;;;5030539;28;20455;-45
2022/06/14 08:48:34;;;;;;;4.10;3.77;;;27.40;36.30;;;;;;5024550;28;20509;-45
2022/06/14 08:51:10;;;;;;;4.93;4.40;;;27.50;36.10;;;;;;5016565;28;20582;-49
2022/06/14 08:54:09;;;;;;;6.20;5.23;;;27.60;37.40;;;;;;5031219;28;20806;-44
2022/06/14 08:57:01;;;;;;;5.27;3.97;;;27.80;36.00;;;;;;5027333;28;20529;-45
2022/06/14 08:59:36;;;;;;;5.30;3.73;;;27.90;34.30;;;;;;5030201;28;20463;-45
2022/06/14 09:02:34;;;;;;;3.97;3.30;;;28.10;33.80;;;;;;5026372;28;20521;-45
2022/06/14 09:05:09;;;;;;;5.60;4.27;;;28.20;33.10;;;;;;5027868;28;20456;-45
2022/06/14 09:07:53;;;;;;;3.63;3.00;;;28.30;32.50;;;;;;5026408;28;20443;-44
2022/06/14 09:10:52;;;;;;;4.37;3.80;;;28.40;33.00;;;;;;5027523;28;20525;-44
2022/06/14 09:13:32;;;;;;;5.03;3.40;;;28.50;33.00;;;;;;5004927;28;20451;-45
2022/06/14 09:16:16;;;;;;;6.67;3.20;;;28.30;31.60;;;;;;5022477;28;20491;-43
2022/06/14 09:18:41;;;;;;;4.97;3.40;;;28.40;32.30;;;;;;5019538;28;20452;-43
2022/06/14 09:21:22;;;;;;;5.20;3.93;;;28.50;32.30;;;;;;5028836;28;20455;-46
2022/06/14 09:24:09;;;;;;;5.70;3.90;;;28.70;32.10;;;;;;5029766;28;20250;-45
2022/06/14 09:26:45;;;;;;;4.20;3.00;;;28.60;30.60;;;;;;5023528;28;20448;-45
2022/06/14 09:29:39;;;;;;;4.00;2.90;;;27.90;30.60;;;;;;5028523;28;20447;-45
2022/06/14 09:33:10;;;;;;;5.20;3.20;;;27.90;30.70;;;;;;5024403;28;20483;-49
2022/06/14 09:35:45;;;;;;;4.47;3.10;;;28.40;30.70;;;;;;5005135;28;20471;-49
2022/06/14 09:38:50;;;;;;;3.40;3.03;;;28.80;29.50;;;;;;5018917;28;20515;-46
2022/06/14 09:41:46;;;;;;;8.03;3.67;;;29.10;29.30;;;;;;5015386;28;21129;-47
2022/06/14 09:44:33;;;;;;;4.30;3.00;;;29.20;30.30;;;;;;5024125;28;20463;-49
2022/06/14 09:47:13;;;;;;;3.60;2.83;;;29.00;29.70;;;;;;5024637;28;21218;-46
2022/06/14 09:50:03;;;;;;;5.30;3.20;;;29.00;29.80;;;;;;5020145;28;20444;-48
2022/06/14 09:52:34;;;;;;;5.03;3.40;;;29.40;30.40;;;;;;5029073;28;20517;-45
2022/06/14 09:55:24;;;;;;;4.07;3.07;;;28.90;28.80;;;;;;5029922;28;20471;-47
2022/06/14 09:57:56;;;;;;;3.97;2.77;;;28.70;29.00;;;;;;5026371;28;21084;-48
2022/06/14 10:00:47;;;;;;;3.43;2.60;;;29.00;29.10;;;;;;5026251;28;20529;-45
2022/06/14 10:03:54;;;;;;;3.63;3.13;;;29.00;29.10;;;;;;5024740;28;20459;-47
2022/06/14 10:06:42;;;;;;;4.47;2.90;;;29.60;27.70;;;;;;4998064;28;20452;-48
2022/06/14 10:09:17;;;;;;;6.90;3.00;;;29.80;27.30;;;;;;5027437;28;20560;-45
2022/06/14 10:12:07;;;;;;;3.57;3.20;;;30.00;27.60;;;;;;5026994;28;20494;-48
2022/06/14 10:14:45;;;;;;;4.63;3.30;;;30.30;28.00;;;;;;5009699;28;20502;-45
2022/06/14 10:17:19;;;;;;;6.30;2.97;;;30.60;27.70;;;;;;5025964;28;20462;-45
2022/06/14 10:20:22;;;;;;;4.73;3.23;;;30.70;27.30;;;;;;5022866;28;20436;-45
2022/06/14 10:23:11;;;;;;;4.10;3.00;;;30.70;27.70;;;;;;4925528;29;20519;-46
2022/06/14 10:29:18;;;;;;;4.07;2.77;;;30.50;27.60;;;;;;5027039;28;20467;-47
2022/06/14 10:32:01;;;;;;;3.37;2.70;;;31.00;26.50;;;;;;5004829;28;20578;-48
2022/06/14 10:34:31;;;;;;;4.83;3.20;;;31.30;27.10;;;;;;5026664;28;20496;-45
2022/06/14 10:36:56;;;;;;;4.33;3.50;;;31.60;26.60;;;;;;5031372;28;20454;-46
2022/06/14 10:39:47;;;;;;;3.50;3.20;;;31.70;27.40;;;;;;5031472;28;20444;-50
2022/06/14 10:42:25;;;;;;;3.40;3.10;;;32.00;28.30;;;;;;5031234;28;20232;-47
2022/06/14 10:45:21;;;;;;;5.17;3.33;;;32.30;27.50;;;;;;5030950;28;20972;-45
2022/06/14 10:47:59;;;;;;;5.67;3.10;;;32.50;26.80;;;;;;5027677;28;20879;-46
2022/06/14 10:50:40;;;;;;;4.60;3.57;;;32.60;26.90;;;;;;5025463;28;20464;-46
2022/06/14 10:53:30;;;;;;;3.60;3.07;;;32.40;25.90;;;;;;5031439;28;20487;-46
2022/06/14 10:56:29;;;;;;;4.90;3.30;;;31.90;25.10;;;;;;5027493;28;20534;-47
2022/06/14 10:59:20;;;;;;;3.50;2.67;;;30.80;26.50;;;;;;5031598;28;20549;-45
2022/06/14 11:02:23;;;;;;;4.23;2.87;;;31.20;27.40;;;;;;5029530;28;20474;-46
2022/06/14 11:05:05;;;;;;;4.70;3.77;;;31.80;27.00;;;;;;5032983;28;20442;-45
2022/06/14 11:07:45;;;;;;;3.90;3.50;;;32.30;26.40;;;;;;5030689;28;20463;-47
2022/06/14 11:10:23;;;;;;;3.97;3.17;;;32.60;25.80;;;;;;5029203;28;20459;-46
2022/06/14 11:13:33;;;;;;;9.47;3.30;;;32.30;25.60;;;;;;5030809;28;20447;-49
2022/06/14 11:16:17;;;;;;;3.00;2.70;;;32.40;26.20;;;;;;5020290;28;20451;-46
2022/06/14 11:18:45;;;;;;;3.83;3.20;;;32.50;26.10;;;;;;5031451;28;20451;-47
2022/06/14 11:21:13;;;;;;;4.30;2.93;;;32.10;25.90;;;;;;5026276;28;20585;-45
2022/06/14 11:24:14;;;;;;;3.67;2.90;;;32.40;25.80;;;;;;5026707;28;20444;-46
2022/06/14 11:27:05;;;;;;;3.03;2.60;;;32.50;25.30;;;;;;5022048;28;20957;-45
2022/06/14 11:29:39;;;;;;;4.13;3.30;;;32.60;26.40;;;;;;5028101;28;20456;-45
2022/06/14 11:32:13;;;;;;;3.63;2.40;;;32.80;25.10;;;;;;5028386;28;20518;-46
2022/06/14 11:34:53;;;;;;;3.57;3.17;;;32.40;24.80;;;;;;5031091;28;20505;-46
2022/06/14 11:37:49;;;;;;;3.83;3.53;;;32.60;25.60;;;;;;5009250;28;20845;-47
2022/06/14 11:40:18;;;;;;;3.50;3.20;;;32.50;25.40;;;;;;5019541;28;21001;-45
2022/06/14 11:43:22;;;;;;;3.47;3.00;;;32.20;25.60;;;;;;5031374;28;20987;-46
2022/06/14 11:46:02;;;;;;;3.73;3.17;;;32.00;25.40;;;;;;4984969;28;23039;-46
2022/06/14 11:48:46;;;;;;;3.10;2.60;;;31.60;25.40;;;;;;5024843;28;20454;-46
2022/06/14 11:51:36;;;;;;;4.67;3.50;;;32.20;25.40;;;;;;5027773;28;20492;-47
2022/06/14 11:54:20;;;;;;;10.43;3.10;;;33.00;24.50;;;;;;5019659;28;20459;-44
2022/06/14 11:57:11;;;;;;;3.50;2.57;;;33.30;24.30;;;;;;5026374;28;20558;-45
2022/06/14 11:59:50;;;;;;;3.87;2.67;;;33.60;23.70;;;;;;5029389;28;20816;-47
2022/06/14 12:02:30;;;;;;;5.47;3.40;;;33.70;23.50;;;;;;5019437;28;20491;-47
2022/06/14 12:05:01;;;;;;;4.87;2.97;;;33.00;23.80;;;;;;5018773;28;20454;-43
2022/06/14 12:07:52;;;;;;;3.03;2.57;;;33.20;24.10;;;;;;5028587;28;20475;-44
2022/06/14 12:10:44;;;;;;;3.70;2.70;;;32.80;22.90;;;;;;5024790;28;20472;-43
2022/06/14 12:13:36;;;;;;;3.37;2.73;;;32.50;23.60;;;;;;5016215;28;20504;-45
2022/06/14 12:16:13;;;;;;;3.00;2.80;;;32.70;24.00;;;;;;5023394;28;20475;-47
2022/06/14 12:18:44;;;;;;;4.17;3.00;;;33.00;24.80;;;;;;5023883;28;20451;-45
2022/06/14 12:21:30;;;;;;;3.17;2.70;;;33.40;25.20;;;;;;5022105;28;20509;-45
2022/06/14 12:24:05;;;;;;;3.27;3.00;;;34.00;25.20;;;;;;5028099;28;20805;-45
2022/06/14 12:26:56;;;;;;;3.47;3.03;;;34.40;24.40;;;;;;5023076;28;20455;-47
2022/06/14 12:29:37;;;;;;;4.57;3.10;;;34.20;23.70;;;;;;5022423;28;20432;-47
2022/06/14 12:32:15;;;;;;;3.43;3.10;;;33.00;24.30;;;;;;5030376;28;20851;-46
2022/06/14 12:34:49;;;;;;;4.10;3.10;;;33.10;24.30;;;;;;5030560;28;20446;-45
2022/06/14 12:37:36;;;;;;;5.13;3.23;;;33.30;23.90;;;;;;5031369;28;20487;-45
2022/06/14 12:40:11;;;;;;;4.57;3.17;;;33.80;24.10;;;;;;5031273;28;20462;-47
2022/06/14 12:42:55;;;;;;;3.17;2.67;;;33.90;24.20;;;;;;5031042;28;20527;-45
2022/06/14 12:45:27;;;;;;;4.60;3.20;;;34.20;24.40;;;;;;5021465;28;20807;-46
2022/06/14 12:48:23;;;;;;;4.70;3.60;;;33.80;23.70;;;;;;5009434;28;20436;-45
2022/06/14 12:50:56;;;;;;;3.70;3.10;;;33.20;24.10;;;;;;5010801;28;20481;-46
2022/06/14 12:53:37;;;;;;;6.23;3.43;;;33.00;24.50;;;;;;5011403;28;20483;-46
2022/06/14 12:56:21;;;;;;;3.90;3.40;;;33.40;24.40;;;;;;5024779;28;20488;-47
2022/06/14 12:59:14;;;;;;;3.40;3.10;;;33.20;24.70;;;;;;5031540;28;20462;-45
2022/06/14 13:01:52;;;;;;;3.80;2.87;;;33.60;24.10;;;;;;5030300;28;20432;-45
2022/06/14 13:04:36;;;;;;;3.27;3.00;;;34.20;24.10;;;;;;5031407;28;20431;-45
2022/06/14 13:07:23;;;;;;;4.00;2.83;;;33.80;23.50;;;;;;5016872;28;20452;-45
2022/06/14 13:10:13;;;;;;;3.03;2.73;;;33.80;23.80;;;;;;5011508;28;20522;-45
2022/06/14 13:12:48;;;;;;;3.27;2.97;;;34.10;24.30;;;;;;5010892;28;20445;-46
2022/06/14 13:15:42;;;;;;;5.30;3.50;;;33.70;23.40;;;;;;5009807;28;20470;-45
2022/06/14 13:18:16;;;;;;;5.93;3.17;;;33.70;25.10;;;;;;5029256;28;20577;-44
2022/06/14 13:21:00;;;;;;;3.20;3.00;;;33.50;25.20;;;;;;5030541;28;20423;-48
2022/06/14 13:23:47;;;;;;;3.33;3.03;;;33.20;24.60;;;;;;5030671;28;20424;-48
2022/06/14 13:26:40;;;;;;;3.47;2.93;;;33.30;24.40;;;;;;5029384;28;20516;-47
2022/06/14 13:29:26;;;;;;;4.37;3.43;;;32.90;24.60;;;;;;5021595;28;20527;-46
2022/06/14 13:32:22;;;;;;;4.60;3.70;;;32.40;25.10;;;;;;5010172;28;20831;-46
2022/06/14 13:35:00;;;;;;;2.67;2.47;;;32.30;25.30;;;;;;5011085;28;20455;-48
2022/06/14 13:37:47;;;;;;;3.00;2.80;;;33.20;25.40;;;;;;5016788;28;20443;-45
2022/06/14 13:40:12;;;;;;;3.00;2.70;;;33.70;24.30;;;;;;5030351;28;20432;-47
2022/06/14 13:42:53;;;;;;;3.57;2.80;;;34.20;23.90;;;;;;5027796;28;20440;-43
2022/06/14 13:45:53;;;;;;;3.13;2.83;;;34.30;23.80;;;;;;5030814;28;20204;-47
2022/06/14 13:48:24;;;;;;;3.20;2.63;;;34.40;23.80;;;;;;5028851;28;21297;-43
2022/06/14 13:50:58;;;;;;;4.47;3.30;;;34.80;23.80;;;;;;5019859;28;21085;-45
2022/06/14 13:53:29;;;;;;;4.13;3.03;;;35.30;23.60;;;;;;5029564;28;20958;-46
2022/06/14 13:56:05;;;;;;;3.20;2.90;;;35.60;23.20;;;;;;5030178;28;20459;-47
2022/06/14 13:58:45;;;;;;;3.00;2.80;;;34.50;22.60;;;;;;5030529;28;20438;-47
2022/06/14 14:01:54;;;;;;;4.37;3.03;;;33.60;23.60;;;;;;5028629;28;20442;-45
2022/06/14 14:04:34;;;;;;;3.60;3.30;;;34.20;23.70;;;;;;4996587;28;20463;-43
2022/06/14 14:06:59;;;;;;;4.53;3.20;;;34.80;24.60;;;;;;5032940;28;20811;-46
2022/06/14 14:09:51;;;;;;;4.40;3.37;;;35.30;23.80;;;;;;5032445;28;20510;-45